Corcoran, Minnesota
Current Conditions -  °F | °C
As of 9:53 AM on Thursday 27 Nov 2014 (Local Time) from KMIC Reporting Station
Clear Clear  
Wind Chill: -9°   Ceiling: Unl
Heat Index:   Visibility: 10mi
Dew Point: -5°   Wind: 7mph
Humidity: 69%   Direction: 330°NNW
Pressure: 30.52"   Gusts: NA
Location:  45.0992°N, 93.4917°W
Report Text: KMIC 271553Z 33006KT 10SM CLR M16/M21 A3052 RMK AO2 SLP355 T11611206
Loading
Personal Weather Stations






























Interactive Weather Map New forecast layout! Learn more

10-Day Weather Forecast

Advertisements
Track Severe Weather on mobile